TimeEDT,TemperatureF,Dew PointF,Humidity,Sea Level PressureIn,VisibilityMPH,Wind Direction,Wind SpeedMPH,Gust SpeedMPH,PrecipitationIn,Events,Conditions,WindDirDegrees,DateUTC
12:53 AM,77.0,75.9,96,30.04,10.0,Calm,Calm,-,N/A,,Mostly Cloudy,0,2013-08-23 04:53:00
1:53 AM,78.1,75.9,93,30.03,10.0,NE,4.6,-,N/A,,Scattered Clouds,50,2013-08-23 05:53:00
2:53 AM,78.1,75.9,93,30.01,10.0,East,3.5,-,N/A,,Mostly Cloudy,80,2013-08-23 06:53:00
3:53 AM,78.1,77.0,96,29.99,10.0,East,3.5,-,N/A,,Mostly Cloudy,80,2013-08-23 07:53:00
4:53 AM,77.0,75.9,96,29.99,10.0,Calm,Calm,-,N/A,,Mostly Cloudy,0,2013-08-23 08:53:00
5:53 AM,78.1,75.9,93,29.99,10.0,North,3.5,-,N/A,,Mostly Cloudy,10,2013-08-23 09:53:00
6:53 AM,78.1,77.0,96,30.00,10.0,ENE,4.6,-,N/A,,Mostly Cloudy,60,2013-08-23 10:53:00
7:53 AM,79.0,77.0,94,30.01,10.0,Calm,Calm,-,N/A,,Mostly Cloudy,0,2013-08-23 11:53:00
8:53 AM,81.0,77.0,88,30.02,10.0,ENE,8.1,-,N/A,,Scattered Clouds,70,2013-08-23 12:53:00
9:53 AM,84.0,75.9,76,30.03,10.0,ESE,8.1,-,N/A,,Scattered Clouds,110,2013-08-23 13:53:00
10:53 AM,87.1,75.0,67,30.04,10.0,Variable,3.5,-,N/A,,Scattered Clouds,0,2013-08-23 14:53:00
11:53 AM,89.1,73.0,59,30.03,10.0,Variable,5.8,-,N/A,,Scattered Clouds,0,2013-08-23 15:53:00
12:53 PM,91.0,72.0,53,30.01,10.0,Variable,4.6,-,N/A,,Scattered Clouds,0,2013-08-23 16:53:00
1:53 PM,89.1,73.9,61,30.00,10.0,ENE,9.2,-,N/A,,Mostly Cloudy,70,2013-08-23 17:53:00
2:53 PM,89.1,77.0,67,29.97,10.0,East,15.0,-,0.00,,Mostly Cloudy,100,2013-08-23 18:53:00
3:06 PM,89.6,75.2,62,29.99,10.0,ESE,13.8,-,N/A,Thunderstorm,Thunderstorm,120,2013-08-23 19:06:00
3:48 PM,89.6,77.0,66,29.98,10.0,SE,16.1,-,N/A,Thunderstorm,Thunderstorm,140,2013-08-23 19:48:00
3:53 PM,88.0,75.9,67,29.98,10.0,SE,15.0,-,0.00,Rain-Thunderstorm,Light Thunderstorms and Rain,140,2013-08-23 19:53:00
4:16 PM,82.4,75.2,79,29.98,10.0,South,12.7,-,0.00,,Mostly Cloudy,170,2013-08-23 20:16:00
4:53 PM,82.9,75.9,79,29.99,10.0,SE,4.6,-,0.00,,Mostly Cloudy,130,2013-08-23 20:53:00
5:53 PM,82.0,77.0,85,30.00,10.0,North,10.4,-,N/A,,Mostly Cloudy,350,2013-08-23 21:53:00
6:53 PM,81.0,73.0,77,30.01,10.0,North,6.9,-,N/A,,Mostly Cloudy,10,2013-08-23 22:53:00
7:53 PM,80.1,75.0,85,30.01,10.0,North,10.4,-,N/A,,Overcast,360,2013-08-23 23:53:00
8:53 PM,80.1,75.9,87,30.03,10.0,NE,4.6,-,N/A,,Overcast,50,2013-08-24 00:53:00
9:53 PM,80.1,75.9,87,30.03,10.0,NE,6.9,-,N/A,,Mostly Cloudy,50,2013-08-24 01:53:00
10:53 PM,79.0,75.9,90,30.03,10.0,Calm,Calm,-,N/A,,Overcast,0,2013-08-24 02:53:00
11:53 PM,79.0,75.9,90,30.02,10.0,ESE,5.8,-,N/A,,Overcast,120,2013-08-24 03:53:00